Hauptseite
METAR-TAF:

METAR-TAF

Flughäfen :

Flughafen Lannion-Côte de Granit

Lannion, Frankreich

Breite: 48-45N, Länge: 003-28W, Höhe: 89 m

Beobachtung

Neuester Wetterbericht von vor 24 Minuten, um 02:00 UTC
Wind 8 kt aus Ost/Nordost, variierte zwischen Nordost und Ost/Südost
Temperatur 4°C
Luftfeuchtigkeit 87%
Luftdruck 1019 hPa
Sichtweite: 9000 m

METAR: LFRO 180200Z AUTO 07008KT 040V110 9000 NSC 04/02 Q1019

Zeit: 03:24 (02:24 UTC)

Prognose

Neuester Wetterbericht von vor 6 Stunden und 14 Minuten, um 20:10 UTC
Gültige Prognose vom 17 um 20 UTC bis 18 um 18 UTC
Wind 9 kt aus Ost
Sichtweite: 6000 m
Übergehend zu
vom 18 um 10 UTC bis 18 um 12 UTC
Sichtweite 10 km oder mehr
keine Wolken unter 1500 m und keine Kumulonimbus oder Gewitterwolken

TAF: LFRO 172010Z 1720/1818 09009KT 6000 NSC BECMG 1810/1812 CAVOK

Wetterbeobachtungen und Prognosen von mehr als 4000 Flughäfen (METAR und TAF Bericht).

Die verfügbaren Stationen werden durch gelbe und rote Markierungen auf der Karte dargestellt.

Führen Sie die Maus auf sie, um den Namen der Station zu sehen.

Darauf klicken, um die Beobachtung von Wetterbeobachtungen und Prognosen zu sehen.

Um die Karte zu ändern : klicken Sie auf den grünen Tasten mit einem schwarzen Kreuz Zum Vergrößern, auf den grünen Button mit einem Gedankenstrich zu verkleinern, oder auf die grünen Pfeile für benachbarte Karten.


METAR-TAF: